createdAt,value
2019-01-17T00:02:04.728Z,1.00
2019-01-17T00:05:08.930Z,1.00
2019-01-17T00:08:11.261Z,1.00
2019-01-17T00:11:28.589Z,1.00
2019-01-17T00:14:34.184Z,1.00
2019-01-17T00:17:35.337Z,1.00
2019-01-17T00:20:45.840Z,1.00
2019-01-17T00:23:52.228Z,1.00
2019-01-17T00:27:04.998Z,1.00
2019-01-17T00:30:12.015Z,1.00
2019-01-17T00:33:14.923Z,1.00
2019-01-17T00:36:30.444Z,1.00
2019-01-17T00:39:36.087Z,1.00
2019-01-17T00:42:31.645Z,1.00
2019-01-17T00:45:29.620Z,1.00
2019-01-17T00:48:27.519Z,1.00
2019-01-17T00:51:43.089Z,1.00
2019-01-17T00:54:48.608Z,1.00
2019-01-17T00:57:54.404Z,1.00
2019-01-17T01:00:59.836Z,1.00
2019-01-17T01:04:15.428Z,1.00
2019-01-17T01:07:31.492Z,1.00
2019-01-17T01:10:36.623Z,1.00
2019-01-17T01:13:47.102Z,1.00
2019-01-17T01:16:58.602Z,1.00
2019-01-17T01:20:02.548Z,1.00
2019-01-17T01:23:08.380Z,1.00
2019-01-17T01:26:20.134Z,1.00
2019-01-17T01:29:32.993Z,1.00
2019-01-17T01:32:38.707Z,1.00
2019-01-17T01:35:43.764Z,1.00
2019-01-17T01:38:49.061Z,1.00
2019-01-17T01:41:53.914Z,1.00
2019-01-17T01:44:59.451Z,1.00
2019-01-17T01:48:10.247Z,1.00
2019-01-17T01:51:22.046Z,1.00
2019-01-17T01:54:11.317Z,1.00
2019-01-17T01:56:58.910Z,1.00
2019-01-17T01:59:46.683Z,1.00
2019-01-17T02:02:34.176Z,1.00
2019-01-17T02:05:21.649Z,1.00
2019-01-17T02:08:09.677Z,1.00
2019-01-17T02:10:57.403Z,1.00
2019-01-17T02:13:48.096Z,1.00
2019-01-17T02:16:38.068Z,1.00
2019-01-17T02:19:25.674Z,1.00
2019-01-17T02:22:15.222Z,1.00
2019-01-17T02:25:05.128Z,1.50
2019-01-17T02:27:53.065Z,3.10
2019-01-17T02:30:41.146Z,4.00
2019-01-17T02:33:28.919Z,4.80
2019-01-17T02:36:16.615Z,5.40
2019-01-17T02:39:06.226Z,6.50
2019-01-17T02:41:53.908Z,8.00
2019-01-17T02:44:41.565Z,9.50
2019-01-17T02:47:31.827Z,11.80
2019-01-17T02:50:20.844Z,13.80
2019-01-17T02:53:08.447Z,16.00
2019-01-17T02:55:56.596Z,17.60
2019-01-17T02:58:44.178Z,18.70
2019-01-17T03:01:31.762Z,20.00
2019-01-17T03:04:19.374Z,22.30
2019-01-17T03:07:07.095Z,23.50
2019-01-17T03:09:54.833Z,24.70
2019-01-17T03:12:42.156Z,25.90
2019-01-17T03:15:29.871Z,25.20
2019-01-17T03:18:19.993Z,26.60
2019-01-17T03:21:07.933Z,27.20
2019-01-17T03:23:55.346Z,26.90
2019-01-17T03:26:44.312Z,27.10
2019-01-17T03:29:34.994Z,28.00
2019-01-17T03:32:22.578Z,28.40
2019-01-17T03:35:10.267Z,27.70
2019-01-17T03:38:08.985Z,29.50
2019-01-17T03:40:56.699Z,29.50
2019-01-17T03:43:45.784Z,29.50
2019-01-17T03:46:33.219Z,30.00
2019-01-17T03:49:20.815Z,29.30
2019-01-17T03:52:08.122Z,29.70
2019-01-17T03:54:56.986Z,31.10
2019-01-17T03:57:45.530Z,31.40
2019-01-17T04:00:34.295Z,31.70
2019-01-17T04:03:26.038Z,30.00
2019-01-17T04:06:16.135Z,30.10
2019-01-17T04:09:05.355Z,30.00
2019-01-17T04:11:53.644Z,29.40
2019-01-17T04:14:40.847Z,29.40
2019-01-17T04:17:32.536Z,26.60
2019-01-17T04:20:23.152Z,25.70
2019-01-17T04:23:11.835Z,25.90
2019-01-17T04:25:59.440Z,23.70
2019-01-17T04:28:52.847Z,24.60
2019-01-17T04:31:43.232Z,25.90
2019-01-17T04:34:31.558Z,26.70
2019-01-17T04:37:22.333Z,27.30
2019-01-17T04:40:12.956Z,29.30
2019-01-17T04:43:00.503Z,29.30
2019-01-17T04:45:50.030Z,29.20
2019-01-17T04:48:41.889Z,30.30
2019-01-17T04:51:29.870Z,30.80
2019-01-17T04:54:23.099Z,30.30
2019-01-17T04:57:11.432Z,30.40
2019-01-17T05:00:02.345Z,28.70
2019-01-17T05:02:50.999Z,26.90
2019-01-17T05:05:39.703Z,25.10
2019-01-17T05:08:27.308Z,23.60
2019-01-17T05:11:14.782Z,21.80
2019-01-17T05:14:06.731Z,22.20
2019-01-17T05:16:51.738Z,22.20
2019-01-17T05:19:39.797Z,20.20
2019-01-17T05:22:27.391Z,19.10
2019-01-17T05:25:20.782Z,19.40
2019-01-17T05:28:08.419Z,19.70
2019-01-17T05:30:55.923Z,18.10
2019-01-17T05:33:43.553Z,17.60
2019-01-17T05:36:31.088Z,17.10
2019-01-17T05:39:22.099Z,16.20
2019-01-17T05:42:13.023Z,15.70
2019-01-17T05:45:02.126Z,15.20
2019-01-17T05:47:52.757Z,15.00
2019-01-17T05:50:41.346Z,12.10
2019-01-17T05:53:29.987Z,11.90
2019-01-17T05:56:18.581Z,10.80
2019-01-17T05:59:06.575Z,10.80
2019-01-17T06:01:54.667Z,11.80
2019-01-17T06:04:47.891Z,11.10
2019-01-17T06:07:37.165Z,9.00
2019-01-17T06:10:25.120Z,7.70
2019-01-17T06:13:14.987Z,7.60
2019-01-17T06:16:05.475Z,6.00
2019-01-17T06:18:58.568Z,6.10
2019-01-17T06:21:57.597Z,6.50
2019-01-17T06:24:44.906Z,4.40
2019-01-17T06:27:35.055Z,5.70
2019-01-17T06:30:31.024Z,5.70
2019-01-17T06:33:20.129Z,5.90
2019-01-17T06:36:10.302Z,4.20
2019-01-17T06:38:59.112Z,2.30
2019-01-17T06:41:46.962Z,5.00
2019-01-17T06:44:40.185Z,6.80
2019-01-17T06:51:44.472Z,8.00
2019-01-17T06:54:32.055Z,5.80
2019-01-17T06:57:21.680Z,6.00
2019-01-17T07:00:16.567Z,3.80
2019-01-17T07:03:04.885Z,5.00
2019-01-17T07:05:52.509Z,4.10
2019-01-17T07:08:40.803Z,3.80
2019-01-17T07:11:28.116Z,3.90
2019-01-17T07:14:22.735Z,3.20
2019-01-17T07:17:10.570Z,3.70
2019-01-17T07:19:58.416Z,5.30
2019-01-17T07:22:48.620Z,5.60
2019-01-17T07:29:36.385Z,4.00
2019-01-17T07:32:23.495Z,3.80
2019-01-17T07:35:11.356Z,3.60
2019-01-17T07:37:59.328Z,3.70
2019-01-17T07:40:49.235Z,3.10
2019-01-17T07:43:37.017Z,3.40
2019-01-17T07:46:24.550Z,4.40
2019-01-17T07:49:12.061Z,2.70
2019-01-17T07:52:00.476Z,3.50
2019-01-17T07:54:48.169Z,5.60
2019-01-17T07:57:35.795Z,4.40
2019-01-17T08:00:23.928Z,4.30
2019-01-17T08:03:11.428Z,5.10
2019-01-17T08:05:59.218Z,4.40
2019-01-17T08:08:47.005Z,3.10
2019-01-17T08:11:34.868Z,1.00
2019-01-17T08:14:22.668Z,1.00
2019-01-17T08:17:10.662Z,1.00
2019-01-17T08:19:58.282Z,1.00
2019-01-17T08:22:46.076Z,1.00
2019-01-17T08:25:33.737Z,1.00
2019-01-17T08:28:25.009Z,1.00
2019-01-17T08:31:14.232Z,1.00
2019-01-17T08:34:01.725Z,1.00
2019-01-17T08:36:49.371Z,1.00
2019-01-17T08:39:36.681Z,1.00
2019-01-17T08:42:24.311Z,1.00
2019-01-17T08:45:13.316Z,1.00
2019-01-17T08:48:01.004Z,1.00
2019-01-17T08:50:49.100Z,1.00
2019-01-17T08:53:36.942Z,1.00
2019-01-17T08:56:24.457Z,1.00
2019-01-17T08:59:12.267Z,1.00
2019-01-17T09:01:59.955Z,1.00
2019-01-17T09:04:47.783Z,1.00
2019-01-17T09:07:39.209Z,1.00
2019-01-17T09:10:29.330Z,1.00
2019-01-17T09:13:18.617Z,1.00
2019-01-17T09:16:08.331Z,1.00
2019-01-17T09:18:56.481Z,1.00
2019-01-17T09:21:44.158Z,1.00
2019-01-17T09:24:31.783Z,1.00
2019-01-17T09:27:19.657Z,1.00
2019-01-17T09:30:09.337Z,1.00
2019-01-17T09:32:56.871Z,1.00
2019-01-17T09:35:48.694Z,1.00
2019-01-17T09:38:36.403Z,1.00
2019-01-17T09:41:25.650Z,1.00
2019-01-17T09:44:13.276Z,1.00
2019-01-17T09:47:01.540Z,1.00
2019-01-17T09:49:48.995Z,1.00
2019-01-17T09:52:36.972Z,1.00
2019-01-17T09:55:30.311Z,1.00
2019-01-17T09:58:17.371Z,1.00
2019-01-17T10:01:04.768Z,1.00
2019-01-17T10:03:55.122Z,1.00
2019-01-17T10:06:43.291Z,1.00
2019-01-17T10:09:31.165Z,1.00
2019-01-17T10:12:18.762Z,1.00
2019-01-17T10:15:11.828Z,1.00
2019-01-17T10:18:15.581Z,1.00
2019-01-17T10:21:34.950Z,1.00
2019-01-17T10:24:46.189Z,1.00
2019-01-17T10:28:00.278Z,1.00
2019-01-17T10:31:19.699Z,1.00
2019-01-17T10:34:17.088Z,1.00
2019-01-17T10:37:45.719Z,1.00
2019-01-17T10:40:56.011Z,1.00
2019-01-17T10:44:18.084Z,1.00
2019-01-17T10:47:36.426Z,1.00
2019-01-17T10:51:00.219Z,1.00
2019-01-17T10:54:08.872Z,1.00
2019-01-17T10:57:15.909Z,1.00
2019-01-17T11:00:13.484Z,1.00
2019-01-17T11:03:50.466Z,1.00
2019-01-17T11:07:31.602Z,1.00
2019-01-17T11:10:58.370Z,1.00
2019-01-17T11:14:20.336Z,1.00
2019-01-17T11:17:54.000Z,1.00
2019-01-17T11:21:31.869Z,1.00
2019-01-17T11:24:58.993Z,1.00
2019-01-17T11:28:23.172Z,1.00
2019-01-17T11:31:38.324Z,1.00
2019-01-17T11:35:13.582Z,1.00
2019-01-17T11:38:50.714Z,1.00
2019-01-17T11:42:10.748Z,1.00
2019-01-17T11:45:23.939Z,1.00
2019-01-17T11:48:52.849Z,1.00
2019-01-17T11:52:12.675Z,1.00
2019-01-17T11:55:34.896Z,1.00
2019-01-17T11:58:43.566Z,1.00
2019-01-17T12:02:12.167Z,1.00
2019-01-17T12:05:00.187Z,1.00
2019-01-17T12:07:47.943Z,1.00
2019-01-17T12:10:35.990Z,1.00
2019-01-17T12:13:24.149Z,1.00
2019-01-17T12:16:12.667Z,1.00
2019-01-17T12:19:00.594Z,1.00
2019-01-17T12:21:54.225Z,1.00
2019-01-17T12:24:43.077Z,1.00
2019-01-17T12:27:30.531Z,1.00
2019-01-17T12:30:18.064Z,1.00
2019-01-17T12:33:06.960Z,1.00
2019-01-17T12:35:54.607Z,1.00
2019-01-17T12:38:42.205Z,1.00
2019-01-17T12:41:30.080Z,1.00
2019-01-17T12:44:20.592Z,1.00
2019-01-17T12:47:08.546Z,1.00
2019-01-17T12:49:56.108Z,1.00
2019-01-17T12:52:43.341Z,1.00
2019-01-17T12:55:34.163Z,1.00
2019-01-17T12:58:21.498Z,1.00
2019-01-17T13:01:10.426Z,1.00
2019-01-17T13:04:00.596Z,1.00
2019-01-17T13:06:47.969Z,1.00
2019-01-17T13:09:35.543Z,1.00
2019-01-17T13:12:24.570Z,1.00
2019-01-17T13:15:16.657Z,1.00
2019-01-17T13:18:04.828Z,1.00
2019-01-17T13:20:55.022Z,1.00
2019-01-17T13:24:11.048Z,2.10
2019-01-17T13:27:00.879Z,6.40
2019-01-17T13:29:48.883Z,10.20
2019-01-17T13:32:38.009Z,11.50
2019-01-17T13:35:29.439Z,13.40
2019-01-17T13:38:16.936Z,15.10
2019-01-17T13:41:06.454Z,15.50
2019-01-17T13:44:07.512Z,18.80
2019-01-17T13:46:58.805Z,19.60
2019-01-17T13:49:46.939Z,22.10
2019-01-17T13:52:35.543Z,22.10
2019-01-17T13:55:24.330Z,22.60
2019-01-17T13:58:11.779Z,23.90
2019-01-17T14:00:59.521Z,23.70
2019-01-17T14:03:48.409Z,23.80
2019-01-17T14:06:54.495Z,22.70
2019-01-17T14:09:57.672Z,22.00
2019-01-17T14:12:45.498Z,22.50
2019-01-17T14:15:35.670Z,21.20
2019-01-17T14:18:27.874Z,21.90
2019-01-17T14:21:14.493Z,21.70
2019-01-17T14:24:02.300Z,19.70
2019-01-17T14:26:50.498Z,20.30
2019-01-17T14:29:38.537Z,20.20
2019-01-17T14:32:30.771Z,18.20
2019-01-17T14:35:18.432Z,18.20
2019-01-17T14:38:10.131Z,18.60
2019-01-17T14:41:00.310Z,17.00
2019-01-17T14:43:48.671Z,17.50
2019-01-17T14:46:38.019Z,17.30
2019-01-17T14:49:25.429Z,17.20
2019-01-17T14:52:14.135Z,18.20
2019-01-17T14:55:05.926Z,18.80
2019-01-17T14:58:00.073Z,18.60
2019-01-17T15:00:47.907Z,21.80
2019-01-17T15:03:35.697Z,21.30
2019-01-17T15:06:23.614Z,21.80
2019-01-17T15:09:10.871Z,24.80
2019-01-17T15:11:58.102Z,28.70
2019-01-17T15:14:46.735Z,28.60
2019-01-17T15:17:39.401Z,29.10
2019-01-17T15:20:30.684Z,29.90
2019-01-17T15:23:19.040Z,30.30
2019-01-17T15:26:09.273Z,31.10
2019-01-17T15:28:57.459Z,31.30
2019-01-17T15:32:18.295Z,31.80
2019-01-17T15:38:31.768Z,32.90
2019-01-17T15:41:28.387Z,33.60
2019-01-17T15:44:11.366Z,33.50
2019-01-17T15:46:58.946Z,33.60
2019-01-17T15:49:49.578Z,33.80
2019-01-17T15:52:46.359Z,33.50
2019-01-17T15:55:45.193Z,32.60
2019-01-17T15:58:45.144Z,32.80
2019-01-17T16:01:32.995Z,33.00
2019-01-17T16:04:47.318Z,34.30
2019-01-17T16:07:41.861Z,34.00
2019-01-17T16:10:30.230Z,34.70
2019-01-17T16:13:28.064Z,36.00
2019-01-17T16:16:17.822Z,36.80
2019-01-17T16:19:16.605Z,36.80
2019-01-17T16:22:06.714Z,36.60
2019-01-17T16:24:55.475Z,36.80
2019-01-17T16:27:52.787Z,36.80
2019-01-17T16:30:38.030Z,36.80
2019-01-17T16:33:28.020Z,36.50
2019-01-17T16:36:16.007Z,36.40
2019-01-17T16:39:07.932Z,34.40
2019-01-17T16:41:56.060Z,35.40
2019-01-17T16:44:48.106Z,35.50
2019-01-17T16:47:36.512Z,36.00
2019-01-17T16:50:27.009Z,35.10
2019-01-17T16:53:17.179Z,35.00
2019-01-17T16:56:05.230Z,34.50
2019-01-17T16:58:54.924Z,34.70
2019-01-17T17:01:47.001Z,33.80
2019-01-17T17:04:39.966Z,34.10
2019-01-17T17:07:28.964Z,33.30
2019-01-17T17:10:32.080Z,31.40
2019-01-17T17:13:32.411Z,31.60
2019-01-17T17:16:22.525Z,30.30
2019-01-17T17:19:13.900Z,29.50
2019-01-17T17:22:03.313Z,28.80
2019-01-17T17:24:50.936Z,26.90
2019-01-17T17:27:38.770Z,28.20
2019-01-17T17:30:28.248Z,29.20
2019-01-17T17:33:16.001Z,29.90
2019-01-17T17:36:03.880Z,31.60
2019-01-17T17:38:51.418Z,31.20
2019-01-17T17:41:39.491Z,31.30
2019-01-17T17:44:29.822Z,31.70
2019-01-17T17:47:24.235Z,31.90
2019-01-17T17:50:13.526Z,31.80
2019-01-17T17:53:01.120Z,32.00
2019-01-17T17:55:51.074Z,30.40
2019-01-17T17:58:39.287Z,29.00
2019-01-17T18:01:31.273Z,28.80
2019-01-17T18:04:18.938Z,28.60
2019-01-17T18:07:06.527Z,28.20
2019-01-17T18:09:54.719Z,27.80
2019-01-17T18:12:46.951Z,27.80
2019-01-17T18:15:34.899Z,27.70
2019-01-17T18:18:22.546Z,26.90
2019-01-17T18:21:14.384Z,26.30
2019-01-17T18:24:05.194Z,24.90
2019-01-17T18:27:14.014Z,24.00
2019-01-17T18:30:44.908Z,22.60
2019-01-17T18:33:32.436Z,22.70
2019-01-17T18:36:22.044Z,22.10
2019-01-17T18:39:12.965Z,21.50
2019-01-17T18:42:01.070Z,22.30
2019-01-17T18:44:48.390Z,22.60
2019-01-17T18:47:35.773Z,23.80
2019-01-17T18:50:25.961Z,25.50
2019-01-17T18:53:18.597Z,24.90
2019-01-17T18:56:06.314Z,25.40
2019-01-17T18:58:54.132Z,23.40
2019-01-17T19:01:42.229Z,22.30
2019-01-17T19:04:31.337Z,20.60
2019-01-17T19:07:19.057Z,20.10
2019-01-17T19:10:15.340Z,18.50
2019-01-17T19:13:09.808Z,18.30
2019-01-17T19:16:05.767Z,16.50
2019-01-17T19:18:53.159Z,15.20
2019-01-17T19:21:40.287Z,14.30
2019-01-17T19:24:29.131Z,13.40
2019-01-17T19:27:16.917Z,12.20
2019-01-17T19:30:07.045Z,13.40
2019-01-17T19:32:55.192Z,12.60
2019-01-17T19:35:48.771Z,12.20
2019-01-17T19:38:36.212Z,11.70
2019-01-17T19:41:23.996Z,12.80
2019-01-17T19:44:11.882Z,12.40
2019-01-17T19:46:59.990Z,12.90
2019-01-17T19:49:52.457Z,13.50
2019-01-17T19:53:08.835Z,11.90
2019-01-17T19:55:56.951Z,13.00
2019-01-17T19:58:48.933Z,13.60
2019-01-17T20:01:36.757Z,12.80
2019-01-17T20:04:27.784Z,11.30
2019-01-17T20:07:15.270Z,12.20
2019-01-17T20:10:05.201Z,13.60
2019-01-17T20:12:52.913Z,14.50
2019-01-17T20:15:50.852Z,19.40
2019-01-17T20:18:38.404Z,22.70
2019-01-17T20:21:25.430Z,25.80
2019-01-17T20:24:15.867Z,28.20
2019-01-17T20:27:04.659Z,30.00
2019-01-17T20:29:52.251Z,30.40
2019-01-17T20:32:40.023Z,31.20
2019-01-17T20:35:27.807Z,31.30
2019-01-17T20:38:21.558Z,30.80
2019-01-17T20:41:09.187Z,30.50
2019-01-17T20:43:57.982Z,29.40
2019-01-17T20:46:47.842Z,28.40
2019-01-17T20:49:36.375Z,26.90
2019-01-17T20:52:24.424Z,27.20
2019-01-17T20:55:12.840Z,27.60
2019-01-17T20:58:00.693Z,27.10
2019-01-17T21:01:11.835Z,27.70
2019-01-17T21:03:58.898Z,28.60
2019-01-17T21:06:46.550Z,29.20
2019-01-17T21:09:34.400Z,29.50
2019-01-17T21:12:21.925Z,30.10
2019-01-17T21:15:10.250Z,31.00
2019-01-17T21:17:58.272Z,30.90
2019-01-17T21:20:45.587Z,31.10
2019-01-17T21:23:33.319Z,30.80
2019-01-17T21:26:24.067Z,30.70
2019-01-17T21:29:11.697Z,30.20
2019-01-17T21:31:59.222Z,29.10
2019-01-17T21:34:49.439Z,29.00
2019-01-17T21:37:36.931Z,27.30
2019-01-17T21:40:25.428Z,26.70
2019-01-17T21:43:13.220Z,26.40
2019-01-17T21:46:04.474Z,26.20
2019-01-17T21:48:52.219Z,25.60
2019-01-17T21:51:39.762Z,23.00
2019-01-17T21:54:27.791Z,22.80
2019-01-17T21:57:14.912Z,23.80
2019-01-17T22:00:02.219Z,23.00
2019-01-17T22:02:49.781Z,22.70
2019-01-17T22:05:37.208Z,22.40
2019-01-17T22:08:24.924Z,20.30
2019-01-17T22:11:12.417Z,18.90
2019-01-17T22:14:00.438Z,17.70
2019-01-17T22:16:47.903Z,17.30
2019-01-17T22:19:35.173Z,18.70
2019-01-17T22:22:22.559Z,17.90
2019-01-17T22:25:13.534Z,17.50
2019-01-17T22:28:00.979Z,17.90
2019-01-17T22:31:02.483Z,17.60
2019-01-17T22:33:50.414Z,17.30
2019-01-17T22:36:38.418Z,15.70
2019-01-17T22:39:26.175Z,16.00
2019-01-17T22:42:13.757Z,16.40
2019-01-17T22:45:02.765Z,14.70
2019-01-17T22:47:50.468Z,13.20
2019-01-17T22:50:38.114Z,10.50
2019-01-17T22:53:26.562Z,9.80
2019-01-17T22:56:14.634Z,10.00
2019-01-17T22:59:02.171Z,10.40
2019-01-17T23:01:49.601Z,11.10
2019-01-17T23:04:36.826Z,11.50
2019-01-17T23:07:26.169Z,10.50
2019-01-17T23:10:16.325Z,12.20
2019-01-17T23:13:04.190Z,13.20
2019-01-17T23:15:53.676Z,13.10
2019-01-17T23:18:41.412Z,13.70
2019-01-17T23:21:29.196Z,12.20
2019-01-17T23:24:24.374Z,12.10
2019-01-17T23:27:12.540Z,11.90
2019-01-17T23:30:00.394Z,12.30
2019-01-17T23:32:52.220Z,14.10
2019-01-17T23:35:40.641Z,17.00
2019-01-17T23:38:30.299Z,19.00
2019-01-17T23:41:19.896Z,20.70
2019-01-17T23:44:08.834Z,24.70
2019-01-17T23:46:56.550Z,26.90
2019-01-17T23:49:48.348Z,28.40
2019-01-17T23:52:36.995Z,28.90
2019-01-17T23:55:27.678Z,29.80
2019-01-17T23:58:14.928Z,30.20
